Terminal Aerodrome Forecast
Issued by NWS

Home | Current Version | Previous Version | Text Only | Print | Product List | Glossary On
Versions: 1 2 3 4 5 6 7 8 9 10 11 12 13 14 15 16 17
476
FTUS43 KDTX 041121 RRA
TAFMBS
TAF
KMBS 041121Z 0411/0512 16006KT P6SM -SHRA BKN035 OVC050
     FM041600 36005KT 6SM -SHRA BR BKN028 OVC040
     FM041800 02008KT 4SM SHRA BR BKN012 OVC028
     FM042200 03013KT 6SM -SHRA BKN010 OVC022
     FM050100 01011KT P6SM BKN016 OVC028
     FM050500 36008KT P6SM BKN030=

USA.gov is the U.S. government's official web portal to all federal, state and local government web resources and services.